createdAt,value
2022-10-26T00:01:37.055Z,14.54
2022-10-26T00:04:05.912Z,14.45
2022-10-26T00:06:36.183Z,14.43
2022-10-26T00:09:04.861Z,14.50
2022-10-26T00:11:33.465Z,14.50
2022-10-26T00:14:02.076Z,14.42
2022-10-26T00:16:31.348Z,14.41
2022-10-26T00:18:59.947Z,14.37
2022-10-26T00:21:28.526Z,14.26
2022-10-26T00:23:57.178Z,14.36
2022-10-26T00:26:25.863Z,14.40
2022-10-26T00:28:55.779Z,14.41
2022-10-26T00:31:25.328Z,14.53
2022-10-26T00:33:55.614Z,14.63
2022-10-26T00:36:25.289Z,14.63
2022-10-26T00:38:56.174Z,14.69
2022-10-26T00:41:28.136Z,14.57
2022-10-26T00:43:58.652Z,14.37
2022-10-26T00:46:32.937Z,14.38
2022-10-26T00:49:07.393Z,14.47
2022-10-26T00:51:39.006Z,14.43
2022-10-26T00:54:10.621Z,14.35
2022-10-26T00:56:39.465Z,14.30
2022-10-26T00:59:11.367Z,14.20
2022-10-26T01:01:42.930Z,14.23
2022-10-26T01:04:12.188Z,14.28
2022-10-26T01:06:43.212Z,14.23
2022-10-26T01:09:13.685Z,14.20
2022-10-26T01:11:42.249Z,14.14
2022-10-26T01:14:13.532Z,14.17
2022-10-26T01:17:05.070Z,14.08
2022-10-26T01:20:11.321Z,13.90
2022-10-26T01:22:58.275Z,13.87
2022-10-26T01:25:53.811Z,13.69
2022-10-26T01:28:28.089Z,13.56
2022-10-26T01:30:59.715Z,13.52
2022-10-26T01:33:47.058Z,13.35
2022-10-26T01:36:27.765Z,13.28
2022-10-26T01:39:05.619Z,13.43
2022-10-26T01:41:49.166Z,13.57
2022-10-26T01:44:23.609Z,13.47
2022-10-26T01:46:55.714Z,13.39
2022-10-26T01:49:27.399Z,13.48
2022-10-26T01:51:56.093Z,13.54
2022-10-26T01:54:24.838Z,13.55
2022-10-26T01:56:56.476Z,13.41
2022-10-26T01:59:49.473Z,13.22
2022-10-26T02:02:32.165Z,13.21
2022-10-26T02:05:38.181Z,13.16
2022-10-26T02:08:15.517Z,13.18
2022-10-26T02:11:00.171Z,13.10
2022-10-26T02:13:44.028Z,13.03
2022-10-26T02:16:21.414Z,12.96
2022-10-26T02:18:53.063Z,13.04
2022-10-26T02:21:27.267Z,13.04
2022-10-26T02:23:59.284Z,12.99
2022-10-26T02:26:30.844Z,13.08
2022-10-26T02:29:02.523Z,13.04
2022-10-26T02:31:33.812Z,12.99
2022-10-26T02:34:05.438Z,12.88
2022-10-26T02:36:37.189Z,12.86
2022-10-26T02:39:10.849Z,12.76
2022-10-26T02:41:43.705Z,12.66
2022-10-26T02:44:21.335Z,12.56
2022-10-26T02:46:53.312Z,12.60
2022-10-26T02:49:22.667Z,12.60
2022-10-26T02:52:15.643Z,12.66
2022-10-26T02:54:55.930Z,12.55
2022-10-26T02:57:33.529Z,12.46
2022-10-26T03:00:03.952Z,12.40
2022-10-26T03:02:32.481Z,12.40
2022-10-26T03:05:10.066Z,12.33
2022-10-26T03:07:38.803Z,12.44
2022-10-26T03:10:08.223Z,12.45
2022-10-26T03:12:36.824Z,12.42
2022-10-26T03:15:06.331Z,12.34
2022-10-26T03:17:35.023Z,12.31
2022-10-26T03:20:05.422Z,12.20
2022-10-26T03:22:35.546Z,12.08
2022-10-26T03:25:04.518Z,12.33
2022-10-26T03:27:33.400Z,12.52
2022-10-26T03:30:01.996Z,12.56
2022-10-26T03:32:30.527Z,12.64
2022-10-26T03:34:59.066Z,12.59
2022-10-26T03:37:28.276Z,12.54
2022-10-26T03:39:56.884Z,12.57
2022-10-26T03:42:25.539Z,12.47
2022-10-26T03:44:55.670Z,12.56
2022-10-26T03:47:24.279Z,12.74
2022-10-26T03:49:52.893Z,12.68
2022-10-26T03:52:21.555Z,12.69
2022-10-26T03:54:51.675Z,12.70
2022-10-26T03:57:20.514Z,12.63
2022-10-26T03:59:49.194Z,12.50
2022-10-26T04:02:17.854Z,12.58
2022-10-26T04:04:46.559Z,12.64
2022-10-26T04:07:15.221Z,12.64
2022-10-26T04:09:46.613Z,12.63
2022-10-26T04:12:15.169Z,12.59
2022-10-26T04:14:43.811Z,12.65
2022-10-26T04:17:15.372Z,12.59
2022-10-26T04:19:44.055Z,12.63
2022-10-26T04:22:12.691Z,12.54
2022-10-26T04:24:41.346Z,12.47
2022-10-26T04:27:12.032Z,12.47
2022-10-26T04:29:40.639Z,12.47
2022-10-26T04:32:10.727Z,12.37
2022-10-26T04:34:39.391Z,12.28
2022-10-26T04:37:07.987Z,12.37
2022-10-26T04:39:36.593Z,12.37
2022-10-26T04:42:05.332Z,12.40
2022-10-26T04:44:34.494Z,12.47
2022-10-26T04:47:03.169Z,12.54
2022-10-26T04:49:31.871Z,12.53
2022-10-26T04:52:00.526Z,12.39
2022-10-26T04:54:29.134Z,12.32
2022-10-26T04:56:57.705Z,12.31
2022-10-26T04:59:26.299Z,12.40
2022-10-26T05:01:57.945Z,12.37
2022-10-26T05:04:26.690Z,12.37
2022-10-26T05:06:55.349Z,12.29
2022-10-26T05:09:24.025Z,12.28
2022-10-26T05:11:53.159Z,12.29
2022-10-26T05:14:29.217Z,12.44
2022-10-26T05:16:57.976Z,12.44
2022-10-26T05:19:26.656Z,12.43
2022-10-26T05:21:55.452Z,12.45
2022-10-26T05:24:24.056Z,12.50
2022-10-26T05:26:52.727Z,12.56
2022-10-26T05:29:22.798Z,12.46
2022-10-26T05:31:52.898Z,12.37
2022-10-26T05:34:42.336Z,12.33
2022-10-26T05:37:40.419Z,12.41
2022-10-26T05:40:29.146Z,12.45
2022-10-26T05:43:33.632Z,12.45
2022-10-26T05:49:13.927Z,12.27
2022-10-26T05:49:41.741Z,12.39
2022-10-26T05:51:45.282Z,12.18
2022-10-26T06:04:44.293Z,12.31
2022-10-26T06:07:15.087Z,12.33
2022-10-26T06:09:48.998Z,12.31
2022-10-26T06:12:19.693Z,12.30
2022-10-26T06:14:50.356Z,12.46
2022-10-26T06:17:38.411Z,12.48
2022-10-26T06:20:22.224Z,12.64
2022-10-26T06:23:17.484Z,12.74
2022-10-26T06:26:07.223Z,12.83
2022-10-26T06:28:55.428Z,13.08
2022-10-26T06:31:24.157Z,13.37
2022-10-26T06:33:55.762Z,13.60
2022-10-26T06:36:28.421Z,13.64
2022-10-26T06:39:04.529Z,13.78
2022-10-26T06:41:35.610Z,13.91
2022-10-26T06:44:05.514Z,13.99
2022-10-26T06:46:46.172Z,13.94
2022-10-26T06:49:32.882Z,13.71
2022-10-26T06:52:10.258Z,13.95
2022-10-26T06:54:55.725Z,14.23
2022-10-26T06:57:26.892Z,14.35
2022-10-26T06:59:58.460Z,14.45
2022-10-26T07:02:27.277Z,14.52
2022-10-26T07:04:57.622Z,14.58
2022-10-26T07:07:30.679Z,14.65
2022-10-26T07:09:59.317Z,14.84
2022-10-26T07:12:32.130Z,14.71
2022-10-26T07:15:01.241Z,14.61
2022-10-26T07:17:30.646Z,14.76
2022-10-26T07:20:02.315Z,14.74
2022-10-26T07:22:30.848Z,14.81
2022-10-26T07:25:03.057Z,15.09
2022-10-26T07:27:31.344Z,15.23
2022-10-26T07:30:07.718Z,15.21
2022-10-26T07:32:59.821Z,15.36
2022-10-26T07:38:34.239Z,15.13
2022-10-26T07:41:04.155Z,15.57
2022-10-26T07:43:38.222Z,15.71
2022-10-26T07:46:14.617Z,15.75
2022-10-26T07:48:46.570Z,15.62
2022-10-26T07:51:18.569Z,15.96
2022-10-26T07:54:01.440Z,15.82
2022-10-26T07:56:31.928Z,16.09
2022-10-26T07:59:06.254Z,16.08
2022-10-26T08:01:40.129Z,16.22
2022-10-26T08:04:10.836Z,16.08
2022-10-26T08:06:41.041Z,16.37
2022-10-26T08:09:15.510Z,16.54
2022-10-26T08:11:51.222Z,16.60
2022-10-26T08:14:20.050Z,16.78
2022-10-26T08:16:50.463Z,16.75
2022-10-26T08:19:24.705Z,16.89
2022-10-26T08:22:02.323Z,16.88
2022-10-26T08:24:31.370Z,16.98
2022-10-26T08:26:59.911Z,17.05
2022-10-26T08:29:34.426Z,17.04
2022-10-26T08:32:02.977Z,17.17
2022-10-26T08:34:31.631Z,17.10
2022-10-26T08:37:00.222Z,17.32
2022-10-26T08:39:32.102Z,17.38
2022-10-26T08:42:20.158Z,17.31
2022-10-26T08:44:51.743Z,17.27
2022-10-26T08:47:26.188Z,17.29
2022-10-26T08:50:13.220Z,17.54
2022-10-26T08:53:02.878Z,17.65
2022-10-26T08:55:34.606Z,17.71
2022-10-26T08:58:06.596Z,17.71
2022-10-26T09:00:35.293Z,17.82
2022-10-26T09:03:07.107Z,17.90
2022-10-26T09:05:38.853Z,18.07
2022-10-26T09:08:32.070Z,18.01
2022-10-26T09:11:18.735Z,18.24
2022-10-26T09:14:13.028Z,18.33
2022-10-26T09:16:59.950Z,18.35
2022-10-26T09:19:46.442Z,17.69
2022-10-26T09:22:26.973Z,18.04
2022-10-26T09:24:58.174Z,18.24
2022-10-26T09:27:33.675Z,18.48
2022-10-26T09:30:07.922Z,18.48
2022-10-26T09:32:54.858Z,18.45
2022-10-26T09:35:26.573Z,18.51
2022-10-26T09:37:58.135Z,18.58
2022-10-26T09:40:38.630Z,18.86
2022-10-26T09:43:26.647Z,19.20
2022-10-26T09:45:55.732Z,19.05
2022-10-26T09:48:42.266Z,18.86
2022-10-26T09:51:14.195Z,18.83
2022-10-26T09:53:42.888Z,18.97
2022-10-26T09:56:16.088Z,18.74
2022-10-26T09:58:47.963Z,18.98
2022-10-26T10:01:36.876Z,19.09
2022-10-26T10:04:13.552Z,19.09
2022-10-26T10:06:43.278Z,19.34
2022-10-26T10:09:21.252Z,19.52
2022-10-26T10:12:02.661Z,19.47
2022-10-26T10:14:38.998Z,19.40
2022-10-26T10:17:10.974Z,19.40
2022-10-26T10:19:40.480Z,19.53
2022-10-26T10:22:24.908Z,19.57
2022-10-26T10:24:58.912Z,19.68
2022-10-26T10:27:29.408Z,19.81
2022-10-26T10:30:03.073Z,19.77
2022-10-26T10:32:35.550Z,19.74
2022-10-26T10:35:02.877Z,19.73
2022-10-26T10:37:42.730Z,19.83
2022-10-26T10:40:18.824Z,19.89
2022-10-26T10:42:49.868Z,19.89
2022-10-26T10:45:24.382Z,19.89
2022-10-26T10:48:07.806Z,20.02
2022-10-26T10:50:37.880Z,20.13
2022-10-26T10:53:19.481Z,20.24
2022-10-26T10:56:14.493Z,20.38
2022-10-26T10:59:03.966Z,20.36
2022-10-26T11:01:44.668Z,20.53
2022-10-26T11:04:26.282Z,20.31
2022-10-26T11:06:57.832Z,20.57
2022-10-26T11:09:29.252Z,20.55
2022-10-26T11:12:12.047Z,20.48
2022-10-26T11:14:49.777Z,20.57
2022-10-26T11:17:25.934Z,20.57
2022-10-26T11:20:31.925Z,20.54
2022-10-26T11:23:24.832Z,20.38
2022-10-26T11:29:05.665Z,20.55
2022-10-26T11:31:47.975Z,20.59
2022-10-26T11:34:34.422Z,20.58
2022-10-26T11:37:11.817Z,20.72
2022-10-26T11:39:50.380Z,20.51
2022-10-26T11:42:49.276Z,20.67
2022-10-26T11:45:42.487Z,20.78
2022-10-26T11:48:26.169Z,20.85
2022-10-26T11:51:02.505Z,20.87
2022-10-26T11:53:34.094Z,20.74
2022-10-26T11:56:11.542Z,20.77
2022-10-26T11:58:39.801Z,20.72
2022-10-26T12:01:19.448Z,20.80
2022-10-26T12:03:49.913Z,20.88
2022-10-26T12:06:21.587Z,20.87
2022-10-26T12:08:53.204Z,21.04
2022-10-26T12:11:24.858Z,21.00
2022-10-26T12:14:08.296Z,21.00
2022-10-26T12:16:51.802Z,20.84
2022-10-26T12:21:55.961Z,20.79
2022-10-26T12:24:27.672Z,20.80
2022-10-26T12:26:58.787Z,20.93
2022-10-26T12:29:41.235Z,21.08
2022-10-26T12:32:30.855Z,21.08
2022-10-26T12:35:03.170Z,21.02
2022-10-26T12:37:37.701Z,20.97
2022-10-26T12:40:44.702Z,20.94
2022-10-26T12:43:19.148Z,20.92
2022-10-26T12:45:52.679Z,20.90
2022-10-26T12:48:44.775Z,20.97
2022-10-26T12:51:25.283Z,20.91
2022-10-26T12:54:05.712Z,21.00
2022-10-26T12:56:37.290Z,20.88
2022-10-26T12:59:25.266Z,20.82
2022-10-26T13:02:15.112Z,20.79
2022-10-26T13:04:46.697Z,20.86
2022-10-26T13:07:30.205Z,20.88
2022-10-26T13:10:16.669Z,20.89
2022-10-26T13:13:00.380Z,20.89
2022-10-26T13:15:40.415Z,20.97
2022-10-26T13:18:22.091Z,21.06
2022-10-26T13:20:57.179Z,21.07
2022-10-26T13:23:46.785Z,20.97
2022-10-26T13:26:23.761Z,20.93
2022-10-26T13:29:02.455Z,20.91
2022-10-26T13:31:51.117Z,20.86
2022-10-26T13:34:30.432Z,20.82
2022-10-26T13:37:18.814Z,20.78
2022-10-26T13:39:49.776Z,20.71
2022-10-26T13:42:21.459Z,20.78
2022-10-26T13:44:53.125Z,20.79
2022-10-26T13:47:30.451Z,20.71
2022-10-26T13:50:03.303Z,20.69
2022-10-26T13:52:38.592Z,20.65
2022-10-26T13:55:12.841Z,20.60
2022-10-26T13:57:47.071Z,20.59
2022-10-26T14:00:23.774Z,20.56
2022-10-26T14:02:56.763Z,20.41
2022-10-26T14:05:25.842Z,20.35
2022-10-26T14:07:57.673Z,20.28
2022-10-26T14:10:41.450Z,20.30
2022-10-26T14:13:12.581Z,20.29
2022-10-26T14:15:49.201Z,20.15
2022-10-26T14:18:22.626Z,20.19
2022-10-26T14:21:02.983Z,20.12
2022-10-26T14:23:37.015Z,20.06
2022-10-26T14:26:06.702Z,20.00
2022-10-26T14:28:38.230Z,20.01
2022-10-26T14:31:16.702Z,20.00
2022-10-26T14:33:44.441Z,19.95
2022-10-26T14:36:13.568Z,19.89
2022-10-26T14:38:51.312Z,19.85
2022-10-26T14:41:20.935Z,19.82
2022-10-26T14:43:50.039Z,19.80
2022-10-26T14:46:20.812Z,19.74
2022-10-26T14:48:55.329Z,19.66
2022-10-26T14:51:29.655Z,19.61
2022-10-26T14:54:01.154Z,19.55
2022-10-26T14:56:41.663Z,19.58
2022-10-26T14:59:28.329Z,19.41
2022-10-26T15:02:20.012Z,19.35
2022-10-26T15:05:06.911Z,19.26
2022-10-26T15:07:40.945Z,19.09
2022-10-26T15:10:29.055Z,18.94
2022-10-26T15:12:57.722Z,18.78
2022-10-26T15:15:27.854Z,18.86
2022-10-26T15:18:00.190Z,18.79
2022-10-26T15:20:33.484Z,18.72
2022-10-26T15:23:09.057Z,18.45
2022-10-26T15:25:42.707Z,18.38
2022-10-26T15:28:26.363Z,18.25
2022-10-26T15:31:14.721Z,18.16
2022-10-26T15:33:54.598Z,18.19
2022-10-26T15:36:26.325Z,17.88
2022-10-26T15:38:55.670Z,17.63
2022-10-26T15:41:41.557Z,17.46
2022-10-26T15:44:13.855Z,17.29
2022-10-26T15:46:42.813Z,17.06
2022-10-26T15:49:17.241Z,16.90
2022-10-26T15:51:54.336Z,16.84
2022-10-26T15:54:28.203Z,16.73
2022-10-26T15:57:02.293Z,16.57
2022-10-26T15:59:36.081Z,16.55
2022-10-26T16:02:17.790Z,16.50
2022-10-26T16:04:46.928Z,16.49
2022-10-26T16:07:20.387Z,16.41
2022-10-26T16:09:50.846Z,16.47
2022-10-26T16:12:21.046Z,16.39
2022-10-26T16:15:06.062Z,16.05
2022-10-26T16:17:19.958Z,16.55
2022-10-26T16:19:50.871Z,16.45
2022-10-26T16:22:22.414Z,16.42
2022-10-26T16:24:51.127Z,16.67
2022-10-26T16:27:21.291Z,16.52
2022-10-26T16:29:51.664Z,16.45
2022-10-26T16:32:24.404Z,16.60
2022-10-26T16:35:08.816Z,16.75
2022-10-26T16:37:42.506Z,16.71
2022-10-26T16:40:11.764Z,16.42
2022-10-26T16:42:50.567Z,16.26
2022-10-26T16:45:22.507Z,16.13
2022-10-26T16:47:55.683Z,15.95
2022-10-26T16:50:24.350Z,15.76
2022-10-26T16:52:54.818Z,15.70
2022-10-26T16:55:30.558Z,15.57
2022-10-26T16:58:15.912Z,15.47
2022-10-26T17:00:47.258Z,15.36
2022-10-26T17:03:17.596Z,15.38
2022-10-26T17:05:46.246Z,15.25
2022-10-26T17:08:16.381Z,15.14
2022-10-26T17:10:45.155Z,15.07
2022-10-26T17:13:13.936Z,15.06
2022-10-26T17:15:42.690Z,15.11
2022-10-26T17:18:17.426Z,15.06
2022-10-26T17:20:55.557Z,15.03
2022-10-26T17:23:24.351Z,15.14
2022-10-26T17:25:55.929Z,15.00
2022-10-26T17:28:24.648Z,14.88
2022-10-26T17:31:09.123Z,14.77
2022-10-26T17:33:40.186Z,14.68
2022-10-26T17:36:10.391Z,14.54
2022-10-26T17:38:41.267Z,14.46
2022-10-26T17:41:13.185Z,14.43
2022-10-26T17:43:43.408Z,14.34
2022-10-26T17:46:14.639Z,14.29
2022-10-26T17:48:45.150Z,14.23
2022-10-26T17:51:18.991Z,14.17
2022-10-26T17:53:51.464Z,14.13
2022-10-26T17:56:31.513Z,14.05
2022-10-26T17:59:05.063Z,14.15
2022-10-26T18:01:34.291Z,14.14
2022-10-26T18:04:04.545Z,14.07
2022-10-26T18:06:34.447Z,14.03
2022-10-26T18:09:04.816Z,14.01
2022-10-26T18:11:33.435Z,13.98
2022-10-26T18:14:02.032Z,13.89
2022-10-26T18:16:31.215Z,13.85
2022-10-26T18:19:05.445Z,13.85
2022-10-26T18:21:41.079Z,13.73
2022-10-26T18:24:10.726Z,13.60
2022-10-26T18:26:42.423Z,13.49
2022-10-26T18:29:13.740Z,13.47
2022-10-26T18:31:42.425Z,13.45
2022-10-26T18:34:11.847Z,13.44
2022-10-26T18:36:40.483Z,13.32
2022-10-26T18:39:12.731Z,13.49
2022-10-26T18:41:41.488Z,13.29
2022-10-26T18:44:10.663Z,13.33
2022-10-26T18:46:42.531Z,13.12
2022-10-26T18:54:48.846Z,12.91
2022-10-26T18:57:18.933Z,12.93
2022-10-26T18:59:53.954Z,12.84
2022-10-26T19:02:24.495Z,12.87
2022-10-26T19:05:03.461Z,12.84
2022-10-26T19:07:35.036Z,12.67
2022-10-26T19:10:05.880Z,12.59
2022-10-26T19:12:40.131Z,12.53
2022-10-26T19:15:13.643Z,12.42
2022-10-26T19:17:42.225Z,12.33
2022-10-26T19:20:13.038Z,12.34
2022-10-26T19:22:43.170Z,12.37
2022-10-26T19:25:16.283Z,12.38
2022-10-26T19:27:57.202Z,12.37
2022-10-26T19:30:28.139Z,12.41
2022-10-26T19:33:02.046Z,12.25
2022-10-26T19:38:04.906Z,12.13
2022-10-26T19:40:38.237Z,12.10
2022-10-26T19:43:10.436Z,12.09
2022-10-26T19:45:41.929Z,12.02
2022-10-26T19:48:11.669Z,12.05
2022-10-26T19:50:44.468Z,11.91
2022-10-26T19:53:17.692Z,11.90
2022-10-26T19:55:50.944Z,11.83
2022-10-26T19:58:20.830Z,11.90
2022-10-26T20:01:05.886Z,11.90
2022-10-26T20:03:43.115Z,11.82
2022-10-26T20:06:14.852Z,11.76
2022-10-26T20:08:55.219Z,11.75
2022-10-26T20:11:23.905Z,11.71
2022-10-26T20:13:58.919Z,11.71
2022-10-26T20:16:29.342Z,11.67
2022-10-26T20:19:04.123Z,11.69
2022-10-26T20:21:32.855Z,11.63
2022-10-26T20:24:05.579Z,11.54
2022-10-26T20:26:33.583Z,11.47
2022-10-26T20:29:03.243Z,11.48
2022-10-26T20:31:33.466Z,11.33
2022-10-26T20:34:04.463Z,11.37
2022-10-26T20:36:33.161Z,11.34
2022-10-26T20:39:04.315Z,11.31
2022-10-26T20:41:35.788Z,11.18
2022-10-26T20:44:14.997Z,11.19
2022-10-26T20:46:44.002Z,11.32
2022-10-26T20:49:15.162Z,11.19
2022-10-26T20:52:18.960Z,11.16
2022-10-26T20:54:26.271Z,11.23
2022-10-26T20:57:13.347Z,11.14
2022-10-26T20:59:50.705Z,11.03
2022-10-26T21:02:25.474Z,10.94
2022-10-26T21:04:56.121Z,10.97
2022-10-26T21:07:26.405Z,10.81
2022-10-26T21:09:56.727Z,10.77
2022-10-26T21:12:32.082Z,10.79
2022-10-26T21:15:04.947Z,10.76
2022-10-26T21:17:37.982Z,10.62
2022-10-26T21:20:07.031Z,10.74
2022-10-26T21:22:38.591Z,10.83
2022-10-26T21:25:09.438Z,10.71
2022-10-26T21:27:38.407Z,10.67
2022-10-26T21:30:07.851Z,10.73
2022-10-26T21:32:36.433Z,10.74
2022-10-26T21:35:05.304Z,10.64
2022-10-26T21:37:33.874Z,10.60
2022-10-26T21:40:02.471Z,10.63
2022-10-26T21:42:32.443Z,10.57
2022-10-26T21:45:03.830Z,10.54
2022-10-26T21:47:35.359Z,10.50
2022-10-26T21:50:14.056Z,10.50
2022-10-26T21:52:46.282Z,10.50
2022-10-26T21:55:15.271Z,10.44
2022-10-26T21:57:43.947Z,10.45
2022-10-26T22:00:13.537Z,10.41
2022-10-26T22:02:42.119Z,10.35
2022-10-26T22:05:11.552Z,10.41
2022-10-26T22:07:40.195Z,10.33
2022-10-26T22:10:11.462Z,10.29
2022-10-26T22:12:39.390Z,10.15
2022-10-26T22:15:10.202Z,10.07
2022-10-26T22:17:40.349Z,10.12
2022-10-26T22:20:11.086Z,10.21
2022-10-26T22:22:42.842Z,10.18
2022-10-26T22:25:14.614Z,10.16
2022-10-26T22:27:45.831Z,10.14
2022-10-26T22:30:14.605Z,10.21
2022-10-26T22:32:43.216Z,10.25
2022-10-26T22:35:28.528Z,10.21
2022-10-26T22:37:43.689Z,10.30
2022-10-26T22:40:12.912Z,10.38
2022-10-26T22:42:41.445Z,10.50
2022-10-26T22:45:12.788Z,10.53
2022-10-26T22:47:41.412Z,10.59
2022-10-26T22:50:10.391Z,10.65
2022-10-26T22:52:46.123Z,10.58
2022-10-26T22:55:14.761Z,10.68
2022-10-26T22:57:43.362Z,10.80
2022-10-26T23:00:12.466Z,10.78
2022-10-26T23:02:41.124Z,10.66
2022-10-26T23:05:10.373Z,10.61
2022-10-26T23:07:38.953Z,10.50
2022-10-26T23:10:08.300Z,10.46
2022-10-26T23:12:36.837Z,10.37
2022-10-26T23:15:05.612Z,10.49
2022-10-26T23:17:34.203Z,10.48
2022-10-26T23:20:03.026Z,10.53
2022-10-26T23:22:31.585Z,10.60
2022-10-26T23:25:00.366Z,10.60
2022-10-26T23:27:28.948Z,10.59
2022-10-26T23:29:57.508Z,10.61
2022-10-26T23:32:26.177Z,10.53
2022-10-26T23:34:54.806Z,10.69
2022-10-26T23:37:23.307Z,10.68
2022-10-26T23:39:52.004Z,10.72
2022-10-26T23:42:20.605Z,10.72
2022-10-26T23:44:49.104Z,10.64
2022-10-26T23:47:17.728Z,10.58
2022-10-26T23:49:47.995Z,10.62
2022-10-26T23:52:17.309Z,10.48
2022-10-26T23:54:46.049Z,10.54
2022-10-26T23:57:14.672Z,10.58
2022-10-26T23:59:43.249Z,10.41
